Wellington, TX

5:48 PM CDT on October 20, 2014 (GMT -0500)
Childress Municipal | Change Station
CLOSE
Current Station
Airport
Location: Childress,
Elevation: 1952 ft
Nearby Weather Stations

Elev 1952 ft 34.43 °N, 100.28 °W | Updated 55 minutes ago

Clear
Clear
84 °F
Feels Like 82 °F
N
5
Wind Variable Wind from South

Today
High -- | Low -- °F
--% Chance of Precip.
Yesterday
High -- | Low -- °F
Precip. -- in
7:50 AM 6:59 PM
Waning Crescent, 9% visible
Pressure 29.94 in
Visibility 10.0 miles
Clouds Clear
Heat Index 82 °F
Dew Point 53 °F
Humidity 34%
Rainfall 0.00 in
Snow Depth Not available.
UV 2 out of 12
Pollen 5.10 out of 12
Air Quality Not available.
Flu Activity Sporadic
METAR KCDS 202153Z AUTO 18004KT 10SM CLR 29/12 A3001 RMK AO2 SLP139 T02890117

More Conditions Fewer Conditions

Pressure 29.94 in
Visibility 10.0 miles
Clouds Clear
Heat Index 82 °F
Dew Point 53 °F
Humidity 34%
Rainfall 0.00 in
Snow Depth Not available.
UV 2 out of 12
Pollen 5.10 out of 12
Air Quality Not available.
Flu Activity Sporadic
METAR KCDS 202153Z AUTO 18004KT 10SM CLR 29/12 A3001 RMK AO2 SLP139 T02890117

More Conditions Fewer Conditions

Nowcast | as of 5:02 PM CDT on October 20, 2014

Isolated showers and thunderstorms will move west at 10 miles an hour across the southern Texas Panhandle late this afternoon and early evening. Most of the rain will stay to the south of Interstate 40 through 700 PM. Gusty winds to around 40 mph and rainfall amounts up to three quarters inch can be expected with this activity.

×

10-Day Weather Forecast

Almanac

Astronomy

Oct. 20, 2014 Rise Set
Actual Time 7:50 AM CDT 6:59 PM CDT
Civil Twilight 7:25 AM CDT 7:25 PM CDT
Nautical Twilight 6:55 AM CDT 7:54 PM CDT
Astronomical Twilight 6:26 AM CDT 8:24 PM CDT
Moon 4:48 AM CDT 5:17 PM CDT
Length of Visible Light 12h 00m
Length of Day
11h 08m
Waning Crescent, 9% of the Moon is Illuminated
Today
Waning Crescent
Oct 23
New
Oct 30
First Quarter
Nov 6
Full
Nov 14
Last Quarter

Today's Extremes

State Highs State Lows

Community

WunderPhotos

Upload Photos

1,763,541 photos uploaded!

WunderBlogs® & News

By Dr. Jeff Masters
Director of Meteorology, Weather Underground
By Kari Strenfel
Meteorologist, Weather Underground
By Christopher C. Burt
Weather Historian, Weather Underground
October 20, 2014
October 20, 2014
October 20, 2014

Nearby

Snow Depth

Station Depth Elevation
No new snow has been reported.

Earthquake Activity

City Distance Mag. Time & Date
Mooreland, Oklahoma 134 miles 2.9 7:34 AM CDT
2014-10-18
Mooreland, Oklahoma 130 miles 2.8 1:16 PM CDT
2014-10-17
Mooreland, Oklahoma 131 miles 2.6 12:42 PM CDT
2014-10-17
Mooreland, Oklahoma 135 miles 2.8 7:51 AM CDT
2014-10-17
Minimum magnitude displayed is 2.5.

Coastal Water Temperatures

Place Temperature
No Stations Reporting

Nearby Weather Stations